createdAt,value
2017-01-16T00:00:51.629Z,0
2017-01-16T00:01:51.566Z,0
2017-01-16T00:02:51.501Z,0
2017-01-16T00:03:51.441Z,0
2017-01-16T00:04:51.376Z,0
2017-01-16T00:05:51.321Z,0
2017-01-16T00:06:51.261Z,0
2017-01-16T00:07:51.195Z,0
2017-01-16T00:08:51.131Z,0
2017-01-16T00:09:51.461Z,0
2017-01-16T00:10:51.006Z,0
2017-01-16T00:11:50.942Z,0
2017-01-16T00:12:50.884Z,0
2017-01-16T00:13:51.209Z,0
2017-01-16T00:14:50.759Z,0
2017-01-16T00:15:50.696Z,0
2017-01-16T00:16:50.633Z,0
2017-01-16T00:17:50.572Z,0
2017-01-16T00:18:50.512Z,0
2017-01-16T00:19:50.446Z,0
2017-01-16T00:20:50.389Z,0
2017-01-16T00:21:50.322Z,0
2017-01-16T00:22:50.260Z,0
2017-01-16T00:23:50.196Z,0
2017-01-16T00:24:50.140Z,0
2017-01-16T00:25:50.075Z,0
2017-01-16T00:26:50.011Z,0
2017-01-16T00:27:49.976Z,0
2017-01-16T00:28:49.889Z,0
2017-01-16T00:29:49.826Z,0
2017-01-16T00:30:49.760Z,0
2017-01-16T00:31:49.701Z,0
2017-01-16T00:32:49.642Z,0
2017-01-16T00:33:49.578Z,0
2017-01-16T00:34:49.517Z,0
2017-01-16T00:35:49.458Z,0
2017-01-16T00:36:49.389Z,0
2017-01-16T00:37:49.329Z,0
2017-01-16T00:38:49.268Z,0
2017-01-16T00:39:49.203Z,0
2017-01-16T00:40:49.141Z,0
2017-01-16T00:41:49.076Z,0
2017-01-16T00:42:49.014Z,0
2017-01-16T00:43:48.958Z,0
2017-01-16T00:44:48.916Z,0
2017-01-16T00:45:48.850Z,0
2017-01-16T00:46:48.770Z,0
2017-01-16T00:47:48.712Z,0
2017-01-16T00:48:48.647Z,0
2017-01-16T00:49:48.584Z,0
2017-01-16T00:50:48.914Z,0
2017-01-16T00:51:48.459Z,0
2017-01-16T00:52:48.392Z,0
2017-01-16T00:53:48.336Z,0
2017-01-16T00:54:48.269Z,0
2017-01-16T00:55:48.210Z,0
2017-01-16T00:56:48.145Z,0
2017-01-16T00:57:48.086Z,0
2017-01-16T00:58:48.024Z,0
2017-01-16T00:59:47.958Z,0
2017-01-16T01:01:17.196Z,0
2017-01-16T01:02:16.708Z,0
2017-01-16T01:03:16.637Z,0
2017-01-16T01:04:16.574Z,0
2017-01-16T01:05:16.522Z,0
2017-01-16T01:06:16.451Z,0
2017-01-16T01:07:16.392Z,0
2017-01-16T01:08:16.330Z,0
2017-01-16T01:09:16.268Z,0
2017-01-16T01:10:16.205Z,0
2017-01-16T01:11:16.143Z,0
2017-01-16T01:12:16.079Z,0
2017-01-16T01:13:16.017Z,0
2017-01-16T01:14:15.952Z,0
2017-01-16T01:15:15.892Z,0
2017-01-16T01:16:15.828Z,0
2017-01-16T01:17:16.167Z,0
2017-01-16T01:18:15.710Z,0
2017-01-16T01:19:15.641Z,0
2017-01-16T01:20:15.583Z,0
2017-01-16T01:21:15.519Z,0
2017-01-16T01:22:15.456Z,0
2017-01-16T01:23:15.392Z,0
2017-01-16T01:24:15.334Z,0
2017-01-16T01:25:15.267Z,0
2017-01-16T01:26:15.205Z,0
2017-01-16T01:27:15.141Z,0
2017-01-16T01:28:15.084Z,0
2017-01-16T01:29:15.017Z,0
2017-01-16T01:30:14.964Z,0
2017-01-16T01:31:14.897Z,0
2017-01-16T01:32:14.831Z,0
2017-01-16T01:33:14.767Z,0
2017-01-16T01:34:14.707Z,0
2017-01-16T01:35:14.648Z,0
2017-01-16T01:36:14.583Z,0
2017-01-16T01:37:14.523Z,0
2017-01-16T01:38:14.459Z,0
2017-01-16T01:39:14.402Z,0
2017-01-16T01:40:14.336Z,0
2017-01-16T01:41:14.269Z,0
2017-01-16T01:42:14.459Z,0
2017-01-16T01:43:14.147Z,0
2017-01-16T01:44:14.088Z,0
2017-01-16T01:45:14.023Z,0
2017-01-16T01:46:13.968Z,0
2017-01-16T01:47:13.901Z,0
2017-01-16T01:48:13.837Z,0
2017-01-16T01:49:13.775Z,0
2017-01-16T01:50:13.712Z,0
2017-01-16T01:51:13.652Z,0
2017-01-16T01:52:13.589Z,0
2017-01-16T01:53:13.524Z,0
2017-01-16T01:54:13.467Z,0
2017-01-16T01:55:13.406Z,0
2017-01-16T01:56:13.341Z,0
2017-01-16T01:57:13.277Z,0
2017-01-16T01:58:13.242Z,0
2017-01-16T01:59:13.158Z,0
2017-01-16T02:00:13.093Z,0
2017-01-16T02:01:13.041Z,0
2017-01-16T02:02:13.123Z,0
2017-01-16T02:03:12.903Z,0
2017-01-16T02:04:12.846Z,0
2017-01-16T02:05:12.809Z,0
2017-01-16T02:06:12.721Z,0
2017-01-16T02:07:12.663Z,0
2017-01-16T02:08:12.593Z,0
2017-01-16T02:09:12.534Z,0
2017-01-16T02:10:12.476Z,0
2017-01-16T02:11:12.418Z,0
2017-01-16T02:12:12.351Z,0
2017-01-16T02:13:12.493Z,0
2017-01-16T02:14:12.225Z,0
2017-01-16T02:15:12.165Z,0
2017-01-16T02:16:12.102Z,0
2017-01-16T02:17:12.037Z,0
2017-01-16T02:18:11.980Z,0
2017-01-16T02:19:11.915Z,0
2017-01-16T02:20:11.859Z,0
2017-01-16T02:21:12.019Z,0
2017-01-16T02:22:11.727Z,0
2017-01-16T02:23:11.669Z,0
2017-01-16T02:24:11.602Z,0
2017-01-16T02:25:11.564Z,0
2017-01-16T02:26:11.482Z,0
2017-01-16T02:27:11.422Z,0
2017-01-16T02:28:11.355Z,0
2017-01-16T02:29:11.293Z,0
2017-01-16T02:30:11.238Z,0
2017-01-16T02:31:11.178Z,0
2017-01-16T02:32:11.110Z,0
2017-01-16T02:33:11.078Z,0
2017-01-16T02:34:10.990Z,0
2017-01-16T02:35:10.925Z,0
2017-01-16T02:36:10.871Z,0
2017-01-16T02:37:10.800Z,0
2017-01-16T02:38:10.740Z,0
2017-01-16T02:39:10.683Z,0
2017-01-16T02:40:10.614Z,0
2017-01-16T02:41:10.591Z,0
2017-01-16T02:42:10.489Z,0
2017-01-16T02:43:10.430Z,0
2017-01-16T02:44:10.763Z,0
2017-01-16T02:45:10.304Z,0
2017-01-16T02:46:10.245Z,0
2017-01-16T02:47:10.182Z,0
2017-01-16T02:48:10.147Z,0
2017-01-16T02:49:10.054Z,0
2017-01-16T02:50:09.999Z,0
2017-01-16T02:51:09.955Z,0
2017-01-16T02:52:10.187Z,0
2017-01-16T02:53:10.402Z,0
2017-01-16T02:54:09.747Z,0
2017-01-16T02:55:09.686Z,0
2017-01-16T02:56:09.650Z,0
2017-01-16T02:57:09.982Z,0
2017-01-16T02:58:09.500Z,0
2017-01-16T02:59:09.477Z,0
2017-01-16T03:00:09.379Z,0
2017-01-16T03:01:09.318Z,0
2017-01-16T03:02:09.257Z,0
2017-01-16T03:03:09.194Z,0
2017-01-16T03:04:09.169Z,0
2017-01-16T03:05:09.069Z,0
2017-01-16T03:06:09.005Z,0
2017-01-16T03:07:08.942Z,0
2017-01-16T03:08:08.900Z,0
2017-01-16T03:09:08.822Z,0
2017-01-16T03:10:08.761Z,0
2017-01-16T03:11:08.696Z,0
2017-01-16T03:12:08.637Z,0
2017-01-16T03:13:08.575Z,0
2017-01-16T03:14:08.511Z,0
2017-01-16T03:15:08.451Z,0
2017-01-16T03:16:08.388Z,0
2017-01-16T03:17:08.721Z,0
2017-01-16T03:18:08.261Z,0
2017-01-16T03:19:08.228Z,0
2017-01-16T03:20:08.140Z,0
2017-01-16T03:21:08.081Z,0
2017-01-16T03:22:08.045Z,0
2017-01-16T03:23:07.950Z,0
2017-01-16T03:24:07.892Z,0
2017-01-16T03:25:07.827Z,0
2017-01-16T03:26:07.765Z,0
2017-01-16T03:27:07.709Z,0
2017-01-16T03:28:07.642Z,0
2017-01-16T03:29:07.580Z,0
2017-01-16T03:30:07.517Z,0
2017-01-16T03:31:07.454Z,0
2017-01-16T03:32:07.391Z,0
2017-01-16T03:33:07.338Z,0
2017-01-16T03:34:07.268Z,0
2017-01-16T03:35:07.223Z,0
2017-01-16T03:36:07.148Z,0
2017-01-16T03:37:07.084Z,0
2017-01-16T03:38:07.025Z,0
2017-01-16T03:39:06.958Z,0
2017-01-16T03:40:06.899Z,0
2017-01-16T03:41:06.836Z,0
2017-01-16T03:42:06.777Z,0
2017-01-16T03:43:06.710Z,0
2017-01-16T03:44:06.650Z,0
2017-01-16T03:45:06.588Z,0
2017-01-16T03:46:06.528Z,0
2017-01-16T03:47:06.463Z,0
2017-01-16T03:48:06.403Z,0
2017-01-16T03:49:06.342Z,0
2017-01-16T03:50:06.279Z,0
2017-01-16T03:51:06.215Z,0
2017-01-16T03:52:06.154Z,0
2017-01-16T03:53:06.100Z,0
2017-01-16T03:54:06.032Z,0
2017-01-16T03:55:05.970Z,0
2017-01-16T03:56:05.940Z,0
2017-01-16T03:57:05.852Z,0
2017-01-16T03:58:05.811Z,0
2017-01-16T03:59:05.717Z,0
2017-01-16T04:00:05.658Z,0
2017-01-16T04:01:05.597Z,0
2017-01-16T04:02:05.531Z,0
2017-01-16T04:03:05.479Z,0
2017-01-16T04:04:05.407Z,0
2017-01-16T04:05:05.356Z,0
2017-01-16T04:06:05.489Z,0
2017-01-16T04:07:05.224Z,0
2017-01-16T04:08:05.163Z,0
2017-01-16T04:09:05.098Z,0
2017-01-16T04:10:05.037Z,0
2017-01-16T04:11:04.979Z,0
2017-01-16T04:12:04.913Z,0
2017-01-16T04:13:04.852Z,0
2017-01-16T04:14:04.789Z,0
2017-01-16T04:15:04.769Z,0
2017-01-16T04:16:04.682Z,0
2017-01-16T04:17:04.613Z,0
2017-01-16T04:18:04.576Z,0
2017-01-16T04:19:04.488Z,0
2017-01-16T04:20:04.438Z,0
2017-01-16T04:21:04.350Z,0
2017-01-16T04:22:04.293Z,0
2017-01-16T04:23:04.229Z,0
2017-01-16T04:24:04.166Z,0
2017-01-16T04:25:04.107Z,0
2017-01-16T04:26:04.044Z,0
2017-01-16T04:27:03.979Z,0
2017-01-16T04:28:03.919Z,0
2017-01-16T04:29:03.886Z,0
2017-01-16T04:30:03.794Z,0
2017-01-16T04:31:03.734Z,0
2017-01-16T04:32:03.672Z,0
2017-01-16T04:33:03.609Z,0
2017-01-16T04:34:03.545Z,0
2017-01-16T04:35:03.487Z,0
2017-01-16T04:36:03.419Z,0
2017-01-16T04:37:03.360Z,0
2017-01-16T04:38:03.295Z,0
2017-01-16T04:39:03.234Z,0
2017-01-16T04:40:03.168Z,0
2017-01-16T04:41:03.121Z,0
2017-01-16T04:42:03.049Z,0
2017-01-16T04:43:02.986Z,0
2017-01-16T04:44:02.952Z,0
2017-01-16T04:45:02.861Z,0
2017-01-16T04:46:02.805Z,0
2017-01-16T04:47:02.739Z,0
2017-01-16T04:48:02.678Z,0
2017-01-16T04:49:02.619Z,0
2017-01-16T04:50:02.554Z,0
2017-01-16T04:51:02.491Z,0
2017-01-16T04:52:02.816Z,0
2017-01-16T04:53:02.366Z,0
2017-01-16T04:54:02.303Z,0
2017-01-16T04:55:02.243Z,0
2017-01-16T04:56:02.179Z,0
2017-01-16T04:57:02.117Z,0
2017-01-16T04:58:02.059Z,0
2017-01-16T04:59:01.993Z,0
2017-01-16T05:00:01.932Z,0
2017-01-16T05:01:01.870Z,0
2017-01-16T05:02:01.804Z,0
2017-01-16T05:03:01.748Z,0
2017-01-16T05:04:01.683Z,0
2017-01-16T05:05:01.619Z,0
2017-01-16T05:06:01.560Z,0
2017-01-16T05:07:01.501Z,0
2017-01-16T05:08:01.438Z,0
2017-01-16T05:09:01.374Z,0
2017-01-16T05:10:01.310Z,0
2017-01-16T05:11:01.251Z,0
2017-01-16T05:12:01.192Z,0
2017-01-16T05:13:01.124Z,0
2017-01-16T05:14:01.061Z,0
2017-01-16T05:15:01.002Z,0
2017-01-16T05:16:00.938Z,0
2017-01-16T05:17:00.882Z,0
2017-01-16T05:18:00.819Z,0
2017-01-16T05:19:00.755Z,0
2017-01-16T05:20:00.695Z,0
2017-01-16T05:21:00.632Z,0
2017-01-16T05:22:00.571Z,0
2017-01-16T05:23:00.506Z,0
2017-01-16T05:24:00.449Z,0
2017-01-16T05:25:00.386Z,0
2017-01-16T05:26:00.323Z,0
2017-01-16T05:27:00.272Z,0
2017-01-16T05:28:00.198Z,0
2017-01-16T05:29:00.136Z,0
2017-01-16T05:30:00.465Z,0
2017-01-16T05:31:00.010Z,0
2017-01-16T05:31:59.950Z,0
2017-01-16T05:32:59.887Z,0
2017-01-16T05:33:59.832Z,0
2017-01-16T05:34:59.770Z,0
2017-01-16T05:35:59.705Z,0
2017-01-16T05:36:59.643Z,0
2017-01-16T05:37:59.582Z,0
2017-01-16T05:38:59.517Z,0
2017-01-16T05:39:59.472Z,0
2017-01-16T05:40:59.787Z,0
2017-01-16T05:41:59.333Z,0
2017-01-16T05:42:59.270Z,0
2017-01-16T05:43:59.208Z,0
2017-01-16T05:44:59.146Z,0
2017-01-16T05:45:59.096Z,0
2017-01-16T05:46:59.024Z,0
2017-01-16T05:47:58.968Z,0
2017-01-16T05:48:58.905Z,0
2017-01-16T05:49:58.842Z,0
2017-01-16T05:50:58.777Z,0
2017-01-16T05:51:58.714Z,0
2017-01-16T05:52:58.655Z,0
2017-01-16T05:53:58.593Z,0
2017-01-16T05:54:58.530Z,0
2017-01-16T05:55:58.471Z,0
2017-01-16T05:56:58.405Z,0
2017-01-16T05:57:58.346Z,0
2017-01-16T05:58:58.283Z,0
2017-01-16T05:59:58.221Z,0
2017-01-16T06:00:58.163Z,0
2017-01-16T06:01:58.100Z,0
2017-01-16T06:02:58.038Z,0
2017-01-16T06:03:57.974Z,0
2017-01-16T06:04:57.911Z,0
2017-01-16T06:05:57.851Z,0
2017-01-16T06:06:57.784Z,0
2017-01-16T06:07:57.725Z,0
2017-01-16T06:08:57.665Z,0
2017-01-16T06:09:57.603Z,0
2017-01-16T06:10:57.546Z,0
2017-01-16T06:11:57.484Z,0
2017-01-16T06:12:57.413Z,0
2017-01-16T06:13:57.359Z,0
2017-01-16T06:14:57.292Z,0
2017-01-16T06:15:57.257Z,0
2017-01-16T06:16:57.170Z,0
2017-01-16T06:17:57.107Z,0
2017-01-16T06:18:57.046Z,0
2017-01-16T06:19:56.986Z,0
2017-01-16T06:20:56.919Z,0
2017-01-16T06:21:56.859Z,0
2017-01-16T06:22:56.801Z,0
2017-01-16T06:23:56.736Z,0
2017-01-16T06:24:56.674Z,0
2017-01-16T06:25:56.611Z,0
2017-01-16T06:26:56.800Z,0
2017-01-16T06:27:56.488Z,0
2017-01-16T06:28:56.426Z,0
2017-01-16T06:29:56.364Z,0
2017-01-16T06:30:56.301Z,0
2017-01-16T06:31:56.237Z,0
2017-01-16T06:32:56.174Z,0
2017-01-16T06:33:56.116Z,0
2017-01-16T06:34:56.444Z,0
2017-01-16T06:35:55.989Z,0
2017-01-16T06:36:55.929Z,0
2017-01-16T06:37:55.870Z,0
2017-01-16T06:38:55.807Z,0
2017-01-16T06:39:55.742Z,0
2017-01-16T06:40:55.685Z,0
2017-01-16T06:41:55.620Z,0
2017-01-16T06:42:55.565Z,0
2017-01-16T06:43:55.491Z,0
2017-01-16T06:44:55.431Z,0
2017-01-16T06:45:55.377Z,0
2017-01-16T06:46:55.317Z,0
2017-01-16T06:47:55.250Z,0
2017-01-16T06:48:55.186Z,0
2017-01-16T06:49:55.123Z,0
2017-01-16T06:50:55.062Z,0
2017-01-16T06:51:55.002Z,0
2017-01-16T06:52:54.940Z,0
2017-01-16T06:53:54.875Z,0
2017-01-16T06:54:54.817Z,0
2017-01-16T06:55:54.762Z,0
2017-01-16T06:56:54.692Z,0
2017-01-16T06:57:54.626Z,0
2017-01-16T06:58:54.566Z,0
2017-01-16T06:59:54.504Z,0
2017-01-16T07:00:54.448Z,0
2017-01-16T07:01:54.378Z,0
2017-01-16T07:02:54.317Z,0
2017-01-16T07:03:54.284Z,0
2017-01-16T07:04:54.196Z,0
2017-01-16T07:05:54.134Z,0
2017-01-16T07:06:54.067Z,0
2017-01-16T07:07:54.018Z,0
2017-01-16T07:08:53.945Z,0
2017-01-16T07:09:53.884Z,0
2017-01-16T07:10:53.820Z,0
2017-01-16T07:11:53.781Z,0
2017-01-16T07:12:53.693Z,4
2017-01-16T07:13:53.634Z,8
2017-01-16T07:14:53.573Z,4
2017-01-16T07:15:53.507Z,4
2017-01-16T07:16:54.280Z,4
2017-01-16T07:17:53.381Z,4
2017-01-16T07:18:53.321Z,4
2017-01-16T07:19:53.681Z,4
2017-01-16T07:20:53.198Z,4
2017-01-16T07:21:53.135Z,4
2017-01-16T07:22:53.073Z,4
2017-01-16T07:23:53.017Z,4
2017-01-16T07:24:52.948Z,4
2017-01-16T07:25:52.888Z,4
2017-01-16T07:26:52.826Z,4
2017-01-16T07:27:52.762Z,4
2017-01-16T07:28:52.697Z,4
2017-01-16T07:29:52.636Z,4
2017-01-16T07:30:52.575Z,4
2017-01-16T07:31:52.511Z,4
2017-01-16T07:32:52.463Z,4
2017-01-16T07:33:52.389Z,4
2017-01-16T07:34:52.324Z,4
2017-01-16T07:35:52.296Z,4
2017-01-16T07:36:52.203Z,4
2017-01-16T07:37:52.191Z,4
2017-01-16T07:38:52.091Z,4
2017-01-16T07:39:52.015Z,4
2017-01-16T07:40:51.950Z,4
2017-01-16T07:41:51.891Z,8
2017-01-16T07:42:51.830Z,8
2017-01-16T07:43:51.767Z,8
2017-01-16T07:44:51.702Z,8
2017-01-16T07:45:51.661Z,8
2017-01-16T07:46:51.600Z,8
2017-01-16T07:47:51.520Z,8
2017-01-16T07:48:51.458Z,4
2017-01-16T07:49:51.408Z,8
2017-01-16T07:50:51.331Z,8
2017-01-16T07:51:51.275Z,8
2017-01-16T07:52:51.206Z,8
2017-01-16T07:53:51.145Z,12
2017-01-16T07:54:51.082Z,8
2017-01-16T07:55:51.020Z,8
2017-01-16T07:56:50.957Z,8
2017-01-16T07:57:50.898Z,8
2017-01-16T07:58:50.834Z,8
2017-01-16T07:59:50.773Z,8
2017-01-16T08:00:50.722Z,8
2017-01-16T08:01:50.646Z,8
2017-01-16T08:02:50.585Z,8
2017-01-16T08:03:50.520Z,8
2017-01-16T08:04:50.462Z,8
2017-01-16T08:05:50.398Z,8
2017-01-16T08:06:50.733Z,8
2017-01-16T08:07:50.272Z,8
2017-01-16T08:08:50.212Z,8
2017-01-16T08:09:50.151Z,8
2017-01-16T08:10:50.088Z,8
2017-01-16T08:11:50.026Z,8
2017-01-16T08:12:49.960Z,8
2017-01-16T08:13:49.899Z,8
2017-01-16T08:14:49.841Z,8
2017-01-16T08:15:49.797Z,8
2017-01-16T08:16:49.712Z,8
2017-01-16T08:17:49.650Z,8
2017-01-16T08:18:49.593Z,8
2017-01-16T08:19:49.556Z,8
2017-01-16T08:20:49.546Z,8
2017-01-16T08:21:49.502Z,8
2017-01-16T08:22:49.411Z,8
2017-01-16T08:23:49.280Z,8
2017-01-16T08:24:49.220Z,8
2017-01-16T08:25:49.169Z,12
2017-01-16T08:26:49.095Z,8
2017-01-16T08:27:49.031Z,8
2017-01-16T08:28:48.978Z,12
2017-01-16T08:29:48.911Z,8
2017-01-16T08:30:48.844Z,12
2017-01-16T08:31:48.784Z,44
2017-01-16T08:32:48.728Z,56
2017-01-16T08:33:48.657Z,60
2017-01-16T08:34:48.602Z,64
2017-01-16T08:35:48.537Z,64
2017-01-16T08:36:48.480Z,64
2017-01-16T08:37:48.416Z,64
2017-01-16T08:38:48.359Z,64
2017-01-16T08:39:48.304Z,64
2017-01-16T08:40:48.237Z,64
2017-01-16T08:41:48.180Z,64
2017-01-16T08:42:48.117Z,64
2017-01-16T08:43:48.044Z,64
2017-01-16T08:44:47.990Z,60
2017-01-16T08:45:47.926Z,60
2017-01-16T08:46:47.862Z,64
2017-01-16T08:47:47.795Z,64
2017-01-16T08:48:47.736Z,64
2017-01-16T08:49:47.671Z,68
2017-01-16T08:50:47.622Z,64
2017-01-16T08:51:47.555Z,60
2017-01-16T08:52:47.506Z,64
2017-01-16T08:53:47.434Z,60
2017-01-16T08:54:47.368Z,64
2017-01-16T08:55:47.301Z,64
2017-01-16T08:56:47.241Z,60
2017-01-16T08:57:47.184Z,60
2017-01-16T08:58:47.128Z,64
2017-01-16T08:59:47.077Z,64
2017-01-16T09:00:47.006Z,64
2017-01-16T09:01:46.938Z,68
2017-01-16T09:02:46.872Z,64
2017-01-16T09:03:46.811Z,64
2017-01-16T09:04:46.747Z,64
2017-01-16T09:05:46.688Z,16
2017-01-16T09:06:46.625Z,16
2017-01-16T09:07:46.561Z,16
2017-01-16T09:08:46.505Z,16
2017-01-16T09:09:46.439Z,12
2017-01-16T09:10:46.377Z,16
2017-01-16T09:11:46.315Z,16
2017-01-16T09:12:46.266Z,16
2017-01-16T09:13:46.194Z,16
2017-01-16T09:14:46.160Z,12
2017-01-16T09:15:46.076Z,12
2017-01-16T09:16:46.013Z,12
2017-01-16T09:17:45.945Z,16
2017-01-16T09:18:45.887Z,16
2017-01-16T09:19:45.824Z,16
2017-01-16T09:20:45.761Z,16
2017-01-16T09:21:45.702Z,16
2017-01-16T09:22:45.638Z,16
2017-01-16T09:23:45.580Z,16
2017-01-16T09:24:45.516Z,12
2017-01-16T09:25:45.460Z,12
2017-01-16T09:26:45.395Z,12
2017-01-16T09:27:45.332Z,12
2017-01-16T09:28:45.797Z,48
2017-01-16T09:29:45.401Z,56
2017-01-16T09:30:45.148Z,56
2017-01-16T09:31:45.080Z,60
2017-01-16T09:32:45.020Z,60
2017-01-16T09:33:44.961Z,60
2017-01-16T09:34:45.101Z,60
2017-01-16T09:35:44.835Z,72
2017-01-16T09:36:45.165Z,76
2017-01-16T09:37:45.100Z,76
2017-01-16T09:38:44.660Z,72
2017-01-16T09:39:44.619Z,72
2017-01-16T09:40:44.528Z,72
2017-01-16T09:41:44.476Z,76
2017-01-16T09:42:44.408Z,76
2017-01-16T09:43:44.340Z,76
2017-01-16T09:44:44.417Z,80
2017-01-16T09:45:44.217Z,80
2017-01-16T09:46:44.441Z,80
2017-01-16T09:47:44.114Z,76
2017-01-16T09:48:44.032Z,76
2017-01-16T09:49:43.974Z,76
2017-01-16T09:50:43.909Z,76
2017-01-16T09:51:43.845Z,76
2017-01-16T09:52:43.780Z,76
2017-01-16T09:53:43.729Z,80
2017-01-16T09:54:43.661Z,64
2017-01-16T09:55:43.600Z,64
2017-01-16T09:56:43.536Z,64
2017-01-16T09:57:43.478Z,60
2017-01-16T09:58:43.415Z,60
2017-01-16T09:59:43.354Z,76
2017-01-16T10:00:43.287Z,80
2017-01-16T10:01:43.226Z,76
2017-01-16T10:02:43.165Z,72
2017-01-16T10:03:43.108Z,76
2017-01-16T10:04:43.052Z,76
2017-01-16T10:05:42.979Z,72
2017-01-16T10:06:42.917Z,72
2017-01-16T10:07:42.868Z,76
2017-01-16T10:08:42.798Z,76
2017-01-16T10:09:42.729Z,76
2017-01-16T10:10:42.672Z,76
2017-01-16T10:11:42.631Z,76
2017-01-16T10:12:42.936Z,76
2017-01-16T10:13:42.491Z,80
2017-01-16T10:14:42.422Z,76
2017-01-16T10:15:42.362Z,76
2017-01-16T10:16:42.553Z,76
2017-01-16T10:17:42.239Z,76
2017-01-16T10:18:42.179Z,72
2017-01-16T10:19:42.117Z,72
2017-01-16T10:20:42.445Z,72
2017-01-16T10:21:42.004Z,72
2017-01-16T10:22:41.929Z,68
2017-01-16T10:23:41.881Z,68
2017-01-16T10:24:41.812Z,72
2017-01-16T10:25:41.788Z,72
2017-01-16T10:26:41.686Z,68
2017-01-16T10:27:41.626Z,72
2017-01-16T10:28:41.561Z,72
2017-01-16T10:29:41.501Z,72
2017-01-16T10:30:41.442Z,72
2017-01-16T10:31:41.767Z,72
2017-01-16T10:32:41.342Z,72
2017-01-16T10:33:41.253Z,72
2017-01-16T10:34:41.193Z,72
2017-01-16T10:35:41.132Z,72
2017-01-16T10:36:41.069Z,76
2017-01-16T10:37:41.007Z,76
2017-01-16T10:38:40.953Z,76
2017-01-16T10:39:40.885Z,76
2017-01-16T10:40:40.823Z,72
2017-01-16T10:41:40.762Z,68
2017-01-16T10:42:40.709Z,72
2017-01-16T10:43:40.648Z,76
2017-01-16T10:44:40.580Z,76
2017-01-16T10:45:40.514Z,72
2017-01-16T10:46:40.456Z,76
2017-01-16T10:47:40.402Z,72
2017-01-16T10:48:40.347Z,76
2017-01-16T10:49:40.300Z,72
2017-01-16T10:50:40.588Z,72
2017-01-16T10:51:40.148Z,72
2017-01-16T10:52:40.083Z,72
2017-01-16T10:53:40.055Z,72
2017-01-16T10:54:39.963Z,68
2017-01-16T10:55:39.900Z,72
2017-01-16T10:56:39.841Z,76
2017-01-16T10:57:39.793Z,76
2017-01-16T10:58:39.747Z,76
2017-01-16T10:59:39.657Z,72
2017-01-16T11:00:39.594Z,76
2017-01-16T11:01:39.541Z,72
2017-01-16T11:02:39.467Z,76
2017-01-16T11:03:39.406Z,72
2017-01-16T11:04:39.356Z,72
2017-01-16T11:05:39.678Z,72
2017-01-16T11:06:39.232Z,76
2017-01-16T11:07:39.167Z,72
2017-01-16T11:08:39.102Z,76
2017-01-16T11:09:39.047Z,72
2017-01-16T11:10:38.980Z,76
2017-01-16T11:11:39.064Z,76
2017-01-16T11:12:38.860Z,72
2017-01-16T11:13:38.799Z,76
2017-01-16T11:14:38.845Z,76
2017-01-16T11:15:38.767Z,72
2017-01-16T11:16:38.615Z,72
2017-01-16T11:17:38.546Z,72
2017-01-16T11:18:38.496Z,72
2017-01-16T11:19:38.448Z,72
2017-01-16T11:20:38.365Z,72
2017-01-16T11:21:38.306Z,72
2017-01-16T11:22:38.242Z,72
2017-01-16T11:23:38.181Z,68
2017-01-16T11:24:38.119Z,68
2017-01-16T11:25:38.123Z,68
2017-01-16T11:26:38.002Z,68
2017-01-16T11:27:37.933Z,68
2017-01-16T11:28:37.873Z,68
2017-01-16T11:29:37.807Z,72
2017-01-16T11:30:37.749Z,72
2017-01-16T11:31:37.692Z,68
2017-01-16T11:32:37.629Z,68
2017-01-16T11:33:37.564Z,68
2017-01-16T11:34:37.503Z,68
2017-01-16T11:35:37.445Z,56
2017-01-16T11:36:37.381Z,60
2017-01-16T11:37:37.320Z,64
2017-01-16T11:38:37.261Z,64
2017-01-16T11:39:37.199Z,64
2017-01-16T11:40:37.140Z,64
2017-01-16T11:41:37.467Z,64
2017-01-16T11:42:37.024Z,68
2017-01-16T11:43:37.346Z,64
2017-01-16T11:44:36.892Z,12
2017-01-16T11:45:36.855Z,12
2017-01-16T11:46:36.770Z,12
2017-01-16T11:47:37.111Z,8
2017-01-16T11:48:36.649Z,8
2017-01-16T11:49:36.590Z,12
2017-01-16T11:50:36.527Z,12
2017-01-16T11:51:36.464Z,8
2017-01-16T11:52:36.398Z,8
2017-01-16T11:53:36.345Z,8
2017-01-16T11:54:36.283Z,12
2017-01-16T11:55:36.218Z,12
2017-01-16T11:56:36.159Z,8
2017-01-16T11:57:36.096Z,12
2017-01-16T11:58:36.030Z,12
2017-01-16T11:59:35.969Z,12
2017-01-16T12:00:35.909Z,12
2017-01-16T12:01:35.850Z,12
2017-01-16T12:02:35.787Z,12
2017-01-16T12:03:35.727Z,12
2017-01-16T12:04:35.663Z,12
2017-01-16T12:05:35.602Z,12
2017-01-16T12:06:35.547Z,12
2017-01-16T12:07:35.482Z,8
2017-01-16T12:08:35.415Z,12
2017-01-16T12:09:35.362Z,12
2017-01-16T12:10:35.293Z,8
2017-01-16T12:11:35.237Z,12
2017-01-16T12:12:35.169Z,8
2017-01-16T12:13:35.109Z,8
2017-01-16T12:14:35.437Z,8
2017-01-16T12:15:34.988Z,8
2017-01-16T12:16:34.929Z,8
2017-01-16T12:17:34.871Z,8
2017-01-16T12:18:34.803Z,8
2017-01-16T12:19:34.736Z,12
2017-01-16T12:20:34.832Z,12
2017-01-16T12:21:34.615Z,8
2017-01-16T12:22:34.557Z,8
2017-01-16T12:23:34.492Z,12
2017-01-16T12:24:34.428Z,12
2017-01-16T12:25:34.398Z,12
2017-01-16T12:26:34.308Z,12
2017-01-16T12:27:34.247Z,12
2017-01-16T12:28:34.189Z,12
2017-01-16T12:29:34.165Z,12
2017-01-16T12:30:34.058Z,12
2017-01-16T12:31:34.387Z,12
2017-01-16T12:32:33.936Z,48
2017-01-16T12:33:33.875Z,64
2017-01-16T12:34:33.814Z,72
2017-01-16T12:35:33.751Z,68
2017-01-16T12:36:33.690Z,68
2017-01-16T12:37:33.626Z,68
2017-01-16T12:38:33.567Z,72
2017-01-16T12:39:33.504Z,72
2017-01-16T12:40:33.443Z,68
2017-01-16T12:41:33.384Z,68
2017-01-16T12:42:33.322Z,68
2017-01-16T12:43:33.645Z,68
2017-01-16T12:44:33.199Z,68
2017-01-16T12:45:33.133Z,68
2017-01-16T12:46:33.071Z,68
2017-01-16T12:47:33.008Z,68
2017-01-16T12:48:32.945Z,72
2017-01-16T12:49:32.884Z,72
2017-01-16T12:50:32.820Z,68
2017-01-16T12:51:32.762Z,72
2017-01-16T12:52:32.698Z,72
2017-01-16T12:53:32.650Z,68
2017-01-16T12:54:32.575Z,68
2017-01-16T12:55:32.517Z,68
2017-01-16T12:56:32.451Z,72
2017-01-16T12:57:32.392Z,68
2017-01-16T12:58:32.327Z,68
2017-01-16T12:59:32.270Z,68
2017-01-16T13:00:32.356Z,68
2017-01-16T13:01:32.143Z,64
2017-01-16T13:02:32.092Z,68
2017-01-16T13:03:32.022Z,68
2017-01-16T13:04:31.961Z,64
2017-01-16T13:05:31.896Z,64
2017-01-16T13:06:31.862Z,64
2017-01-16T13:07:31.773Z,68
2017-01-16T13:08:31.714Z,68
2017-01-16T13:09:31.652Z,68
2017-01-16T13:10:31.589Z,68
2017-01-16T13:11:31.544Z,68
2017-01-16T13:12:31.512Z,68
2017-01-16T13:13:31.408Z,68
2017-01-16T13:14:31.351Z,68
2017-01-16T13:15:31.529Z,68
2017-01-16T13:16:31.220Z,68
2017-01-16T13:17:31.550Z,68
2017-01-16T13:18:31.097Z,68
2017-01-16T13:19:31.138Z,64
2017-01-16T13:20:31.056Z,68
2017-01-16T13:21:31.053Z,68
2017-01-16T13:22:31.242Z,64
2017-01-16T13:23:31.183Z,68
2017-01-16T13:24:30.734Z,68
2017-01-16T13:25:30.667Z,68
2017-01-16T13:26:30.612Z,64
2017-01-16T13:27:30.539Z,64
2017-01-16T13:28:30.482Z,64
2017-01-16T13:29:30.442Z,64
2017-01-16T13:30:30.356Z,64
2017-01-16T13:31:30.302Z,64
2017-01-16T13:32:30.233Z,64
2017-01-16T13:33:30.172Z,64
2017-01-16T13:34:30.119Z,64
2017-01-16T13:35:30.049Z,64
2017-01-16T13:36:29.989Z,64
2017-01-16T13:37:30.316Z,64
2017-01-16T13:38:29.871Z,64
2017-01-16T13:39:29.800Z,64
2017-01-16T13:40:29.747Z,64
2017-01-16T13:41:29.720Z,60
2017-01-16T13:42:29.620Z,60
2017-01-16T13:43:29.591Z,60
2017-01-16T13:44:29.500Z,64
2017-01-16T13:45:29.827Z,64
2017-01-16T13:46:29.405Z,60
2017-01-16T13:47:29.313Z,64
2017-01-16T13:48:29.321Z,64
2017-01-16T13:49:29.211Z,64
2017-01-16T13:50:29.168Z,64
2017-01-16T13:51:29.067Z,64
2017-01-16T13:52:29.106Z,64
2017-01-16T13:53:28.947Z,64
2017-01-16T13:54:28.928Z,64
2017-01-16T13:55:28.829Z,64
2017-01-16T13:56:28.778Z,64
2017-01-16T13:57:28.701Z,64
2017-01-16T13:58:28.678Z,64
2017-01-16T13:59:28.648Z,64
2017-01-16T14:00:28.656Z,60
2017-01-16T14:01:28.539Z,64
2017-01-16T14:02:28.616Z,64
2017-01-16T14:03:28.373Z,64
2017-01-16T14:04:29.078Z,64
2017-01-16T14:05:28.285Z,64
2017-01-16T14:06:28.173Z,64
2017-01-16T14:07:28.178Z,12
2017-01-16T14:08:28.059Z,16
2017-01-16T14:09:28.432Z,12
2017-01-16T14:10:27.926Z,12
2017-01-16T14:11:27.831Z,12
2017-01-16T14:12:27.782Z,12
2017-01-16T14:13:27.713Z,12
2017-01-16T14:14:27.678Z,8
2017-01-16T14:15:27.630Z,8
2017-01-16T14:16:27.583Z,8
2017-01-16T14:17:27.470Z,8
2017-01-16T14:18:27.406Z,12
2017-01-16T14:19:27.347Z,8
2017-01-16T14:20:27.282Z,8
2017-01-16T14:21:27.404Z,8
2017-01-16T14:22:27.170Z,8
2017-01-16T14:23:27.106Z,8
2017-01-16T14:24:27.154Z,8
2017-01-16T14:25:27.027Z,8
2017-01-16T14:26:26.932Z,8
2017-01-16T14:27:26.871Z,8
2017-01-16T14:28:26.817Z,8
2017-01-16T14:29:26.742Z,8
2017-01-16T14:30:26.699Z,8
2017-01-16T14:31:26.608Z,8
2017-01-16T14:32:26.569Z,8
2017-01-16T14:33:26.487Z,4
2017-01-16T14:34:26.423Z,8
2017-01-16T14:35:26.366Z,8